Time;durP1;ratioP1;P1;durP2;ratioP2;P2;SDS_P1;SDS_P2;PMS_P1;PMS_P2;Temp;Humidity;BMP_temperature;BMP_pressure;BME280_temperature;BME280_humidity;BME280_pressure;Samples;Min_cycle;Max_cycle;Signal;HPM_P1;HPM_P2
2023/10/02 00:01:07;;;;;;;8.00;4.00;;;;;;;24.40;47.74;102017.53;5032815;28;20549;-67
2023/10/02 00:03:34;;;;;;;5.88;3.22;;;;;;;24.39;47.84;102019.38;5034408;28;20691;-68
2023/10/02 00:06:01;;;;;;;7.72;3.53;;;;;;;24.32;47.69;102013.13;5018278;28;20045;-68
2023/10/02 00:08:35;;;;;;;5.93;3.42;;;;;;;24.38;47.80;102024.88;5032365;28;20049;-66
2023/10/02 00:11:36;;;;;;;9.32;4.03;;;;;;;24.40;47.90;102021.03;5038673;28;20059;-66
2023/10/02 00:14:20;;;;;;;6.90;3.80;;;;;;;24.38;47.85;102030.22;5035766;28;20461;-68
2023/10/02 00:17:06;;;;;;;7.38;4.05;;;;;;;24.40;47.93;102026.34;5019472;28;20053;-67
2023/10/02 00:19:40;;;;;;;6.95;3.53;;;;;;;24.39;47.98;102026.53;5034511;28;20135;-66
2023/10/02 00:22:09;;;;;;;6.57;3.60;;;;;;;24.41;47.76;102019.19;5035702;28;20302;-68
2023/10/02 00:24:39;;;;;;;5.95;3.60;;;;;;;24.39;47.55;102023.88;5038770;28;20629;-67
2023/10/02 00:27:07;;;;;;;6.28;3.30;;;;;;;24.35;47.78;102012.78;5044994;28;20057;-68
2023/10/02 00:29:33;;;;;;;6.63;3.67;;;;;;;24.36;47.66;102018.94;5037068;28;20033;-66
2023/10/02 00:31:59;;;;;;;8.02;4.20;;;;;;;24.37;47.85;102018.75;5038939;28;20075;-67
2023/10/02 00:34:32;;;;;;;6.72;3.95;;;;;;;24.38;47.84;102016.91;5038919;28;20045;-67
2023/10/02 00:37:06;;;;;;;6.57;3.97;;;;;;;24.40;47.88;102018.38;5039597;28;20080;-67
2023/10/02 00:39:35;;;;;;;7.03;3.85;;;;;;;24.35;47.85;102025.25;5034527;28;20045;-66
2023/10/02 00:44:54;;;;;;;6.38;3.80;;;;;;;24.39;47.74;102027.38;5048888;28;20041;-67
2023/10/02 00:47:42;;;;;;;7.30;3.78;;;;;;;24.41;47.80;102019.19;5056570;28;20136;-67
2023/10/02 00:50:10;;;;;;;6.63;3.72;;;;;;;24.37;48.07;102016.06;5058871;28;20044;-68
2023/10/02 00:52:40;;;;;;;6.80;3.78;;;;;;;24.39;47.84;102014.06;5054548;28;20059;-68
2023/10/02 00:55:08;;;;;;;6.85;3.78;;;;;;;24.35;47.91;102011.94;5053617;28;20422;-66
2023/10/02 00:57:36;;;;;;;7.80;3.92;;;;;;;24.39;47.81;102006.06;5047873;28;20060;-67
2023/10/02 01:00:06;;;;;;;8.25;3.67;;;;;;;24.34;47.89;101987.16;5056146;28;20123;-67
2023/10/02 01:02:34;;;;;;;7.13;3.55;;;;;;;24.38;47.76;101990.28;5047223;28;20505;-67
2023/10/02 01:05:00;;;;;;;9.40;4.55;;;;;;;24.38;47.91;101991.09;5054420;28;20044;-67
2023/10/02 01:07:28;;;;;;;9.75;3.88;;;;;;;24.39;47.93;101990.09;5053356;28;20036;-67
2023/10/02 01:10:07;;;;;;;6.97;3.65;;;;;;;24.38;47.85;101988.44;5052808;28;20116;-67
2023/10/02 01:12:43;;;;;;;7.68;4.18;;;;;;;24.38;47.78;101983.13;5050351;28;20147;-68
2023/10/02 01:15:13;;;;;;;9.88;4.20;;;;;;;24.40;47.60;101991.75;5053557;28;20041;-66
2023/10/02 01:17:39;;;;;;;6.65;3.85;;;;;;;24.39;47.72;101983.94;5050369;28;20045;-66
2023/10/02 01:20:20;;;;;;;8.90;4.93;;;;;;;24.41;47.91;101987.25;5053127;28;20041;-66
2023/10/02 01:22:52;;;;;;;7.53;3.80;;;;;;;24.39;47.83;101982.09;5049406;28;20044;-66
2023/10/02 01:25:24;;;;;;;9.52;3.70;;;;;;;24.39;47.85;101976.78;5054141;28;20045;-66
2023/10/02 01:27:53;;;;;;;8.07;4.18;;;;;;;24.39;47.75;101984.78;5038618;28;20931;-64
2023/10/02 01:30:22;;;;;;;10.90;4.93;;;;;;;24.40;47.85;101985.59;5054900;28;20119;-66
2023/10/02 01:35:46;;;;;;;6.68;3.95;;;;;;;24.43;47.72;101989.75;5055684;28;20052;-66
2023/10/02 01:38:14;;;;;;;5.63;3.42;;;;;;;24.40;47.63;101982.94;5066926;28;20398;-66
2023/10/02 01:41:22;;;;;;;7.40;3.78;;;;;;;24.40;47.74;101981.09;5058185;28;20451;-65
2023/10/02 01:43:45;;;;;;;7.43;4.22;;;;;;;24.39;47.75;101978.63;5066184;28;20057;-66
2023/10/02 01:46:18;;;;;;;8.25;4.03;;;;;;;24.40;47.76;101967.78;5052626;28;20045;-66
2023/10/02 01:48:44;;;;;;;7.00;4.15;;;;;;;24.38;47.57;101983.13;5058101;28;20068;-65
2023/10/02 01:51:20;;;;;;;8.70;3.88;;;;;;;24.40;47.76;101975.78;5058192;28;20048;-65
2023/10/02 01:53:50;;;;;;;7.78;4.07;;;;;;;24.39;47.76;101975.97;5057650;28;20119;-66
2023/10/02 01:56:18;;;;;;;7.05;3.70;;;;;;;24.36;47.76;101971.81;5076347;28;20434;-66
2023/10/02 01:58:48;;;;;;;9.85;3.83;;;;;;;24.39;47.79;101966.13;5058601;28;20052;-66
2023/10/02 02:01:15;;;;;;;8.13;3.60;;;;;;;24.42;47.55;101970.28;5070418;28;20574;-66
2023/10/02 02:03:42;;;;;;;6.65;3.45;;;;;;;24.39;47.57;101974.13;5050672;28;20406;-64
2023/10/02 02:06:08;;;;;;;7.10;3.92;;;;;;;24.35;47.79;101962.19;5057007;28;20742;-66
2023/10/02 02:08:43;;;;;;;8.88;4.22;;;;;;;24.38;47.77;101968.97;5055097;28;20083;-66
2023/10/02 02:11:16;;;;;;;7.38;4.15;;;;;;;24.39;47.74;101970.63;5057283;28;20048;-66
2023/10/02 02:13:50;;;;;;;8.35;3.85;;;;;;;24.39;47.84;101963.47;5054944;28;20131;-66
2023/10/02 02:16:33;;;;;;;6.82;3.70;;;;;;;24.32;47.67;101951.09;5056399;28;20054;-65
2023/10/02 02:19:05;;;;;;;7.70;4.10;;;;;;;24.36;47.83;101955.84;5055891;28;20048;-66
2023/10/02 02:21:32;;;;;;;7.93;4.13;;;;;;;24.39;47.77;101954.66;5060469;28;20048;-66
2023/10/02 02:24:06;;;;;;;8.88;4.18;;;;;;;24.40;47.56;101950.97;5053800;28;20036;-66
2023/10/02 02:26:39;;;;;;;5.40;3.50;;;;;;;24.39;47.81;101944.00;5056520;28;20060;-66
2023/10/02 02:29:05;;;;;;;7.90;4.05;;;;;;;24.35;47.74;101942.72;5056318;28;20469;-65
2023/10/02 02:31:32;;;;;;;8.02;4.25;;;;;;;24.39;47.76;101955.47;5055963;28;20051;-66
2023/10/02 02:34:04;;;;;;;6.85;4.07;;;;;;;24.39;47.69;101949.34;5053254;28;20689;-66
2023/10/02 02:36:35;;;;;;;7.93;4.13;;;;;;;24.38;47.71;101950.34;5054343;28;20054;-67
2023/10/02 02:39:16;;;;;;;8.18;3.97;;;;;;;24.35;47.83;101951.53;5055204;28;20125;-66
2023/10/02 02:44:43;;;;;;;6.03;3.47;;;;;;;24.40;47.74;101945.66;5039598;28;20549;-66
2023/10/02 02:47:10;;;;;;;6.80;3.90;;;;;;;24.39;47.77;101941.34;5021857;28;20690;-65
2023/10/02 02:49:51;;;;;;;6.63;4.10;;;;;;;24.39;47.74;101949.34;5038142;28;20041;-66
2023/10/02 02:52:28;;;;;;;8.73;3.90;;;;;;;24.40;47.66;101940.34;5030946;28;20373;-65
2023/10/02 02:54:59;;;;;;;8.10;3.92;;;;;;;24.39;47.75;101946.66;5036985;28;20045;-65
2023/10/02 02:57:31;;;;;;;8.25;4.38;;;;;;;24.38;47.75;101945.84;5033912;28;21041;-66
2023/10/02 03:02:47;;;;;;;7.20;3.65;;;;;;;24.37;47.67;101935.38;5038782;28;20056;-66
2023/10/02 03:05:16;;;;;;;7.88;4.30;;;;;;;24.37;47.80;101941.53;5034470;28;20045;-66
2023/10/02 03:07:42;;;;;;;8.05;4.22;;;;;;;24.38;47.75;101937.88;5037735;28;20509;-66
2023/10/02 03:10:11;;;;;;;7.72;4.20;;;;;;;24.38;47.83;101937.88;5033951;28;20080;-66
2023/10/02 03:12:45;;;;;;;7.05;3.83;;;;;;;24.37;47.70;101938.88;5034453;28;20075;-66
2023/10/02 03:15:20;;;;;;;9.63;4.53;;;;;;;24.38;47.84;101932.53;5035433;28;20041;-65
2023/10/02 03:17:48;;;;;;;9.23;4.32;;;;;;;24.40;47.68;101921.69;5033780;28;20053;-66
2023/10/02 03:20:24;;;;;;;6.78;4.70;;;;;;;24.38;47.60;101924.56;5038151;28;20118;-66
2023/10/02 03:22:53;;;;;;;6.78;3.67;;;;;;;24.38;47.77;101932.53;5035442;28;20060;-66
2023/10/02 03:25:28;;;;;;;7.53;4.25;;;;;;;24.37;47.65;101922.91;5037116;28;20816;-66
2023/10/02 03:27:57;;;;;;;6.70;3.92;;;;;;;24.38;47.59;101910.41;5033165;28;20412;-65
2023/10/02 03:30:43;;;;;;;6.53;3.78;;;;;;;24.35;47.77;101922.25;5036682;28;20135;-65
2023/10/02 03:33:17;;;;;;;8.70;4.40;;;;;;;24.34;47.75;101906.47;5036520;28;20040;-66
2023/10/02 03:35:58;;;;;;;6.90;4.40;;;;;;;24.36;47.73;101907.13;5033538;28;20053;-67
2023/10/02 03:38:32;;;;;;;7.00;3.80;;;;;;;24.39;47.76;101904.91;5036622;28;20040;-66
2023/10/02 03:41:01;;;;;;;8.15;3.95;;;;;;;24.34;47.87;101912.63;5032937;28;20048;-66
2023/10/02 03:43:42;;;;;;;6.88;4.70;;;;;;;24.35;47.81;101908.94;5035649;28;20049;-65
2023/10/02 03:46:13;;;;;;;8.65;4.30;;;;;;;24.36;47.85;101907.13;5018881;28;20059;-65
2023/10/02 03:48:40;;;;;;;8.18;4.55;;;;;;;24.35;47.63;101905.47;5039591;28;20049;-66
2023/10/02 03:51:09;;;;;;;7.90;4.50;;;;;;;24.36;47.70;101902.63;5036367;28;20049;-66
2023/10/02 03:53:35;;;;;;;8.98;4.30;;;;;;;24.37;47.78;101896.28;5021266;28;20136;-65
2023/10/02 03:58:52;;;;;;;6.78;4.10;;;;;;;24.36;47.92;101899.13;5036228;28;20048;-66
2023/10/02 04:01:28;;;;;;;6.90;3.95;;;;;;;24.30;47.60;101886.56;5035932;28;20145;-66
2023/10/02 04:04:37;;;;;;;7.97;3.88;;;;;;;24.31;47.55;101890.88;5033802;28;20156;-66
2023/10/02 04:06:43;;;;;;;9.13;4.70;;;;;;;24.33;47.72;101902.16;5025096;28;20060;-66
2023/10/02 04:11:43;;;;;;;7.32;4.13;;;;;;;24.37;47.70;101903.44;5031512;28;20395;-67
2023/10/02 04:14:18;;;;;;;7.10;4.13;;;;;;;24.36;47.85;101899.94;5034902;28;20033;-67
2023/10/02 04:16:48;;;;;;;7.75;4.63;;;;;;;24.38;47.61;101895.25;5034915;28;20125;-66
2023/10/02 04:19:33;;;;;;;8.90;4.57;;;;;;;24.35;47.63;101892.16;5035387;28;20556;-66
2023/10/02 04:21:58;;;;;;;7.47;4.32;;;;;;;24.37;47.59;101884.81;5035824;28;20041;-67
2023/10/02 04:24:24;;;;;;;8.90;4.25;;;;;;;24.37;47.78;101890.94;5033568;28;20507;-65
2023/10/02 04:27:08;;;;;;;8.30;4.38;;;;;;;24.33;47.88;101887.00;5042455;28;20093;-67
2023/10/02 04:29:37;;;;;;;6.45;4.03;;;;;;;24.32;47.83;101882.69;5035414;28;20273;-66
2023/10/02 04:32:14;;;;;;;7.93;3.85;;;;;;;24.34;47.75;101885.19;5035187;28;20053;-67
2023/10/02 04:34:50;;;;;;;8.48;4.35;;;;;;;24.34;47.58;101888.66;5040449;28;20072;-66
2023/10/02 04:37:19;;;;;;;9.45;5.00;;;;;;;24.33;47.83;101884.34;5029665;28;20067;-66
2023/10/02 04:42:57;;;;;;;8.38;4.40;;;;;;;24.32;47.59;101879.22;4998796;28;1126043;-66
2023/10/02 04:45:21;;;;;;;7.18;3.97;;;;;;;24.34;47.69;101886.00;5052296;28;20079;-66
2023/10/02 04:47:54;;;;;;;7.22;4.50;;;;;;;24.35;47.62;101886.81;5057870;28;20044;-67
2023/10/02 04:53:19;;;;;;;7.35;4.05;;;;;;;24.34;47.91;101883.34;5056083;28;20033;-66
2023/10/02 04:55:48;;;;;;;7.65;4.25;;;;;;;24.35;47.72;101886.81;5051207;28;20037;-67
2023/10/02 04:58:19;;;;;;;7.85;4.70;;;;;;;24.34;47.58;101893.16;5052559;28;20079;-66
2023/10/02 05:03:36;;;;;;;8.00;4.60;;;;;;;24.35;47.64;101897.47;5051607;28;20149;-66
2023/10/02 05:06:03;;;;;;;8.75;4.35;;;;;;;24.34;47.79;101903.81;5056604;28;20403;-66
2023/10/02 05:09:11;;;;;;;8.55;4.75;;;;;;;24.35;47.60;101900.13;5054342;28;20062;-65
2023/10/02 05:11:46;;;;;;;7.60;4.47;;;;;;;24.35;47.69;101906.28;5053316;28;20056;-65
2023/10/02 05:14:13;;;;;;;9.90;4.82;;;;;;;24.36;47.65;101899.13;5054457;28;20052;-66
2023/10/02 05:16:42;;;;;;;8.55;4.30;;;;;;;24.32;47.76;101898.66;5053553;28;20049;-66
2023/10/02 05:19:09;;;;;;;8.25;4.50;;;;;;;24.34;47.51;101891.31;5051454;28;21682;-65
2023/10/02 05:21:50;;;;;;;9.80;4.55;;;;;;;24.34;47.75;101895.81;5052292;28;20044;-66
2023/10/02 05:24:18;;;;;;;8.13;4.25;;;;;;;24.34;47.84;101896.66;5053231;28;20098;-66
2023/10/02 05:26:46;;;;;;;7.88;4.25;;;;;;;24.35;47.63;101885.00;5051822;28;20052;-65
2023/10/02 05:29:17;;;;;;;9.15;4.68;;;;;;;24.32;47.66;101890.69;5052153;28;20052;-66
2023/10/02 05:31:43;;;;;;;10.25;5.05;;;;;;;24.35;47.75;101881.50;5058193;28;20059;-66
2023/10/02 05:34:22;;;;;;;9.30;4.15;;;;;;;24.33;47.64;101883.53;5051767;28;20076;-65
2023/10/02 05:39:39;;;;;;;8.68;4.45;;;;;;;24.35;47.59;101898.31;5052460;28;20068;-65
2023/10/02 05:42:14;;;;;;;6.90;3.95;;;;;;;24.31;47.69;101896.19;5051685;28;20459;-66
2023/10/02 05:44:43;;;;;;;6.72;4.05;;;;;;;24.33;47.75;101889.69;5050962;28;20715;-66
2023/10/02 05:47:09;;;;;;;;;;;;;;;24.30;47.76;101890.06;5056368;28;20075;-66
2023/10/02 05:49:48;;;;;;;9.07;4.75;;;;;;;24.28;47.84;101888.56;5053734;28;19943;-66
2023/10/02 05:52:14;;;;;;;8.02;4.93;;;;;;;24.31;47.60;101897.03;5059845;28;20499;-65
2023/10/02 05:54:47;;;;;;;7.63;4.22;;;;;;;24.32;47.62;101904.00;5060560;28;20472;-65
2023/10/02 05:57:14;;;;;;;7.63;4.10;;;;;;;24.32;47.67;101905.84;5046262;28;20052;-66
2023/10/02 05:59:44;;;;;;;6.50;3.75;;;;;;;24.33;47.73;101915.47;5057611;28;20071;-66
2023/10/02 06:02:13;;;;;;;8.00;4.80;;;;;;;24.32;47.93;101927.13;5054348;28;20044;-65
2023/10/02 06:04:47;;;;;;;8.10;4.22;;;;;;;24.29;47.78;101927.50;5053938;28;20048;-66
2023/10/02 06:07:59;;;;;;;7.93;4.35;;;;;;;24.32;47.74;101930.63;5050439;28;20049;-66
2023/10/02 06:10:25;;;;;;;8.73;4.85;;;;;;;24.32;47.71;101933.28;5045058;28;20103;-66
2023/10/02 06:13:03;;;;;;;8.40;4.45;;;;;;;24.34;47.58;101925.94;5052778;28;20068;-66
2023/10/02 06:15:46;;;;;;;6.93;3.97;;;;;;;24.34;47.61;101930.44;5054751;28;20473;-66
2023/10/02 06:18:24;;;;;;;8.95;4.55;;;;;;;24.33;47.76;101931.44;5054191;28;20749;-67
2023/10/02 06:21:03;;;;;;;7.07;4.30;;;;;;;24.32;47.74;101930.63;5062730;28;20044;-66
2023/10/02 06:23:37;;;;;;;8.25;4.35;;;;;;;24.31;47.72;101941.44;5054858;28;20189;-65
2023/10/02 06:26:10;;;;;;;7.40;4.25;;;;;;;24.32;47.61;101946.59;5053442;28;20073;-66
2023/10/02 06:28:36;;;;;;;7.25;4.28;;;;;;;24.34;47.63;101943.75;5056854;28;20049;-66
2023/10/02 06:31:03;;;;;;;9.60;4.97;;;;;;;24.33;47.52;101942.91;5051285;28;20044;-65
2023/10/02 06:33:28;;;;;;;8.93;4.40;;;;;;;24.34;47.63;101946.41;5034772;28;20630;-67
2023/10/02 06:35:57;;;;;;;10.90;4.65;;;;;;;24.31;47.66;101946.78;5054935;28;20056;-65
2023/10/02 06:38:23;;;;;;;9.23;4.60;;;;;;;24.28;47.81;101947.94;5054886;28;20865;-66
2023/10/02 06:40:56;;;;;;;9.30;4.85;;;;;;;24.30;47.69;101951.28;5054057;28;20051;-66
2023/10/02 06:43:32;;;;;;;8.55;4.70;;;;;;;24.31;47.79;101944.94;5055682;28;20053;-66
2023/10/02 06:46:16;;;;;;;9.27;4.13;;;;;;;24.31;47.74;101950.25;5052846;28;20451;-66
2023/10/02 06:48:46;;;;;;;10.30;4.78;;;;;;;24.33;47.73;101956.22;5055664;28;20135;-65
2023/10/02 06:51:15;;;;;;;7.00;4.20;;;;;;;24.32;47.47;101959.91;5054189;28;20032;-65
2023/10/02 06:53:42;;;;;;;10.25;4.60;;;;;;;24.30;47.78;101961.09;5050848;28;20049;-65
2023/10/02 06:56:12;;;;;;;10.23;5.05;;;;;;;24.29;47.73;101951.47;5056046;28;20056;-66
2023/10/02 06:58:52;;;;;;;8.32;4.38;;;;;;;24.30;47.84;101951.28;5052676;28;20413;-66
2023/10/02 07:01:18;;;;;;;9.23;4.75;;;;;;;24.30;47.77;101953.09;5055892;28;20101;-66
2023/10/02 07:03:56;;;;;;;8.52;4.93;;;;;;;24.33;47.88;101952.75;5051014;28;20498;-65
2023/10/02 07:06:26;;;;;;;11.32;5.25;;;;;;;24.32;47.61;101959.91;5051812;28;20518;-66
2023/10/02 07:09:12;;;;;;;8.77;4.70;;;;;;;24.30;47.77;101963.75;5057613;28;20044;-66
2023/10/02 07:11:39;;;;;;;7.80;4.25;;;;;;;24.31;47.70;101963.56;5059150;28;20150;-66
2023/10/02 07:14:06;;;;;;;8.13;4.55;;;;;;;24.33;47.73;101958.06;5053492;28;20048;-66
2023/10/02 07:16:35;;;;;;;7.75;4.65;;;;;;;24.34;47.71;101962.38;5055018;28;20877;-67
2023/10/02 07:19:01;;;;;;;10.23;4.50;;;;;;;24.34;47.59;101957.06;5056690;28;20516;-66
2023/10/02 07:21:30;;;;;;;8.98;4.55;;;;;;;24.30;47.95;101955.78;5054013;28;20703;-66
2023/10/02 07:23:58;;;;;;;9.27;4.82;;;;;;;24.30;47.79;101953.09;5059113;28;20090;-66
2023/10/02 07:29:08;;;;;;;11.43;4.63;;;;;;;24.26;47.66;101946.47;5054413;28;20046;-66
2023/10/02 07:31:34;;;;;;;7.72;4.50;;;;;;;24.33;47.75;101958.06;5051850;28;20430;-66
2023/10/02 07:34:01;;;;;;;8.70;4.72;;;;;;;24.33;47.61;101958.06;5055768;28;20060;-66
2023/10/02 07:36:26;;;;;;;8.40;4.40;;;;;;;24.32;47.87;101953.75;5052765;28;20063;-66
2023/10/02 07:38:53;;;;;;;7.40;4.07;;;;;;;24.31;47.88;101962.75;5054877;28;20048;-67
2023/10/02 07:41:25;;;;;;;8.23;4.75;;;;;;;24.33;47.71;101958.06;5037390;28;20068;-66
2023/10/02 07:43:54;;;;;;;7.90;4.30;;;;;;;24.26;48.02;101960.59;5022772;28;20060;-65
2023/10/02 07:46:22;;;;;;;8.55;4.70;;;;;;;24.33;47.82;101960.72;5031803;28;20037;-65
2023/10/02 07:48:57;;;;;;;8.57;4.47;;;;;;;24.34;47.84;101963.19;5033120;28;20130;-66
2023/10/02 07:51:35;;;;;;;7.65;3.90;;;;;;;24.34;47.69;101971.19;5022212;28;20073;-66
2023/10/02 07:54:05;;;;;;;9.00;4.53;;;;;;;24.32;48.01;101959.06;5031890;28;20048;-65
2023/10/02 07:56:32;;;;;;;10.35;4.80;;;;;;;24.33;47.79;101963.38;5035815;28;20506;-66
2023/10/02 07:59:01;;;;;;;6.80;3.90;;;;;;;24.30;47.91;101947.78;5034467;28;20048;-66
2023/10/02 08:01:28;;;;;;;7.50;4.40;;;;;;;24.36;47.89;101952.38;5040046;28;20106;-65
2023/10/02 08:03:55;;;;;;;7.95;4.32;;;;;;;24.39;48.00;101960.81;5027529;28;20057;-66
2023/10/02 08:06:37;;;;;;;7.85;4.35;;;;;;;24.38;47.95;101961.00;5037748;28;20053;-66
2023/10/02 08:11:53;;;;;;;7.18;4.15;;;;;;;24.38;47.94;101956.50;5034907;28;20052;-65
2023/10/02 08:14:40;;;;;;;10.88;5.18;;;;;;;24.41;47.76;101964.13;5033565;28;20159;-66
2023/10/02 08:20:19;;;;;;;8.18;4.45;;;;;;;24.38;47.78;101961.00;5017613;28;20120;-66
2023/10/02 08:22:45;;;;;;;7.65;4.03;;;;;;;24.44;47.71;101957.63;5033422;28;20140;-65
2023/10/02 08:25:14;;;;;;;8.98;4.82;;;;;;;24.44;47.65;101964.78;5031561;28;20041;-67
2023/10/02 08:27:44;;;;;;;;;;;;;;;24.41;47.89;101960.63;5036421;28;20836;-68
2023/10/02 08:30:26;;;;;;;7.50;4.22;;;;;;;24.42;47.90;101962.31;5035583;28;19948;-67
2023/10/02 08:32:53;;;;;;;8.30;4.20;;;;;;;24.47;47.78;101972.41;5032333;28;20077;-68
2023/10/02 08:35:19;;;;;;;9.27;4.88;;;;;;;24.47;47.74;101961.75;5017356;28;20057;-68
2023/10/02 08:37:45;;;;;;;8.77;4.38;;;;;;;24.47;47.86;101967.06;5028934;28;20447;-67
2023/10/02 08:40:14;;;;;;;10.45;5.05;;;;;;;24.48;47.96;101963.41;5029964;28;20452;-67
2023/10/02 08:42:46;;;;;;;9.70;4.95;;;;;;;24.52;47.73;101954.84;5043412;28;20088;-67
2023/10/02 08:45:18;;;;;;;8.10;4.07;;;;;;;24.49;47.91;101965.88;5052511;28;20097;-66
2023/10/02 08:47:47;;;;;;;7.45;4.15;;;;;;;24.52;47.67;101959.34;5055729;28;20056;-66
2023/10/02 08:50:16;;;;;;;7.93;4.60;;;;;;;24.51;47.76;101952.38;5054511;28;20102;-66
2023/10/02 08:52:50;;;;;;;8.23;4.57;;;;;;;24.53;47.74;101948.53;5051483;28;20060;-67
2023/10/02 08:55:51;;;;;;;7.78;4.70;;;;;;;24.52;47.69;101954.84;5051092;28;20489;-67
2023/10/02 08:58:21;;;;;;;8.15;4.28;;;;;;;24.52;47.98;101952.19;5050423;28;20041;-65
2023/10/02 09:03:42;;;;;;;9.13;4.28;;;;;;;24.54;47.77;101960.00;5037528;28;20079;-66
2023/10/02 09:06:25;;;;;;;9.50;4.32;;;;;;;24.57;47.65;101963.13;5051641;28;20048;-66
2023/10/02 09:11:36;;;;;;;7.88;4.40;;;;;;;24.59;47.83;101960.25;5055118;28;20056;-65
2023/10/02 09:14:16;;;;;;;7.85;4.43;;;;;;;24.56;47.54;101949.97;5056061;28;20102;-66
2023/10/02 09:16:45;;;;;;;8.10;4.47;;;;;;;24.60;47.80;101965.44;5053553;28;20076;-67
2023/10/02 09:19:31;;;;;;;10.20;4.22;;;;;;;24.58;47.70;101951.44;5051638;28;20059;-66
2023/10/02 09:22:06;;;;;;;9.35;4.63;;;;;;;24.59;47.84;101953.09;5052610;28;20044;-66
2023/10/02 09:24:41;;;;;;;10.23;4.57;;;;;;;24.58;47.91;101955.94;5053087;28;20736;-67
2023/10/02 09:27:24;;;;;;;9.90;4.55;;;;;;;24.61;47.85;101964.41;5052122;28;20053;-66
2023/10/02 09:30:15;;;;;;;9.05;4.75;;;;;;;24.60;47.69;101959.28;5035575;28;20052;-67
2023/10/02 09:32:49;;;;;;;9.45;4.32;;;;;;;24.60;47.87;101959.28;5051465;28;20139;-66
2023/10/02 09:35:29;;;;;;;9.85;5.22;;;;;;;24.60;47.89;101951.28;5054498;28;20048;-67
2023/10/02 09:38:04;;;;;;;7.60;4.30;;;;;;;24.61;47.83;101955.59;5050607;28;20049;-66
2023/10/02 09:43:23;;;;;;;7.70;3.90;;;;;;;24.61;47.84;101950.28;5052460;28;20067;-68
2023/10/02 09:45:56;;;;;;;7.68;4.65;;;;;;;24.59;48.01;101941.63;5048364;28;21945;-68
2023/10/02 09:51:44;;;;;;;7.38;4.25;;;;;;;24.57;48.13;101927.66;5055942;28;20033;-67
2023/10/02 09:54:13;;;;;;;8.65;4.63;;;;;;;24.59;47.87;101922.97;5053376;28;20059;-68
2023/10/02 09:57:12;;;;;;;8.95;4.47;;;;;;;24.62;47.82;101930.63;5055501;28;20733;-69
2023/10/02 09:59:48;;;;;;;8.90;4.83;;;;;;;24.63;48.08;101938.44;5058379;28;20041;-67
2023/10/02 10:07:52;;;;;;;8.48;4.22;;;;;;;24.64;47.74;101931.25;5059218;28;20044;-69
2023/10/02 10:10:53;;;;;;;9.73;4.47;;;;;;;24.61;47.84;101940.44;5058314;28;20049;-69
2023/10/02 10:13:25;;;;;;;10.32;4.78;;;;;;;24.62;47.81;101946.59;4978250;28;20050;-68
2023/10/02 10:16:23;;;;;;;7.97;4.00;;;;;;;24.64;47.82;101939.25;5042023;28;20064;-67
2023/10/02 10:19:41;;;;;;;8.65;3.88;;;;;;;24.66;47.88;101947.88;5055032;28;20048;-67
2023/10/02 10:21:57;;;;;;;9.73;4.47;;;;;;;24.64;47.94;101937.41;5040447;28;20785;-67
2023/10/02 10:24:55;;;;;;;9.07;4.50;;;;;;;24.65;48.03;101930.25;5052183;28;20047;-67
2023/10/02 10:27:41;;;;;;;8.52;4.55;;;;;;;24.68;47.81;101921.88;5056917;28;20052;-66
2023/10/02 10:36:08;;;;;;;7.95;4.60;;;;;;;24.69;48.13;101915.53;5058192;28;20147;-67
2023/10/02 10:38:34;;;;;;;8.77;4.68;;;;;;;24.70;48.06;101918.00;5053035;28;20060;-67
2023/10/02 10:41:09;;;;;;;11.65;4.97;;;;;;;24.74;48.22;101914.97;5053817;28;20048;-66
2023/10/02 10:46:16;;;;;;;7.47;4.97;;;;;;;24.71;48.05;101908.19;5052902;28;20037;-67
2023/10/02 10:48:45;;;;;;;8.55;4.55;;;;;;;24.69;47.96;101910.22;5053013;28;20036;-67
2023/10/02 10:51:20;;;;;;;8.73;4.70;;;;;;;24.71;48.14;101916.19;5067797;28;20040;-67
2023/10/02 10:54:00;;;;;;;9.00;4.60;;;;;;;24.72;48.21;101917.84;5049097;28;20052;-67
2023/10/02 10:56:27;;;;;;;9.60;4.63;;;;;;;24.66;48.11;101913.25;5055087;28;20121;-66
2023/10/02 10:58:54;;;;;;;8.35;4.55;;;;;;;24.70;48.34;101926.00;5052112;28;20403;-67
2023/10/02 11:01:23;;;;;;;8.65;4.68;;;;;;;24.68;48.25;101921.88;5055802;28;20045;-67
2023/10/02 11:03:54;;;;;;;10.10;4.50;;;;;;;24.70;47.99;101918.00;5051806;28;20044;-67
2023/10/02 11:06:22;;;;;;;9.20;4.50;;;;;;;24.73;48.14;101922.16;5055601;28;20530;-66
2023/10/02 11:09:15;;;;;;;8.15;3.90;;;;;;;24.75;48.01;101919.28;5053552;28;20049;-66
2023/10/02 11:11:50;;;;;;;9.70;5.43;;;;;;;24.75;47.98;101911.31;5047469;28;21043;-66
2023/10/02 11:14:38;;;;;;;8.75;4.97;;;;;;;24.78;47.93;101909.13;5053388;28;20056;-65
2023/10/02 11:17:04;;;;;;;10.95;4.65;;;;;;;24.73;48.03;101902.66;5055201;28;20747;-66
2023/10/02 11:22:15;;;;;;;9.25;4.30;;;;;;;24.69;48.35;101911.03;5050279;28;20048;-66
2023/10/02 11:25:17;;;;;;;9.60;5.30;;;;;;;24.69;48.36;101915.53;5053648;28;21425;-66
2023/10/02 11:27:56;;;;;;;9.30;5.13;;;;;;;24.66;48.41;101911.41;5052630;28;20174;-67
2023/10/02 11:30:31;;;;;;;9.43;5.03;;;;;;;24.67;48.35;101917.56;5054615;28;20048;-67
2023/10/02 11:33:04;;;;;;;10.02;5.13;;;;;;;24.66;48.53;101926.56;5050456;28;20132;-68
2023/10/02 11:35:37;;;;;;;8.40;4.57;;;;;;;24.69;48.12;101928.84;5058838;28;20052;-66
2023/10/02 11:38:07;;;;;;;9.77;4.50;;;;;;;24.67;48.29;101931.72;5047705;28;20045;-67
2023/10/02 11:40:36;;;;;;;10.38;5.13;;;;;;;24.66;48.44;101911.41;5054281;28;20049;-67
2023/10/02 11:43:02;;;;;;;8.45;5.18;;;;;;;24.68;48.49;101921.88;5047121;28;20049;-68
2023/10/02 11:45:33;;;;;;;11.63;4.65;;;;;;;24.68;48.29;101917.38;5053393;28;20124;-67
2023/10/02 11:47:59;;;;;;;10.35;4.43;;;;;;;24.70;48.51;101926.00;5051817;28;20051;-65
2023/10/02 11:50:24;;;;;;;9.55;4.63;;;;;;;24.71;48.38;101908.19;5037390;28;20498;-66
2023/10/02 11:52:51;;;;;;;8.65;4.70;;;;;;;24.76;48.20;101910.28;5050914;28;20045;-68
2023/10/02 11:55:18;;;;;;;9.10;5.18;;;;;;;24.71;48.41;101924.16;5052465;28;20066;-68
2023/10/02 11:57:51;;;;;;;8.40;4.63;;;;;;;24.74;48.14;101917.63;5052997;28;20059;-67
2023/10/02 12:00:21;;;;;;;8.80;4.93;;;;;;;24.68;48.53;101912.06;5052674;28;20131;-68
2023/10/02 12:02:49;;;;;;;10.30;4.55;;;;;;;24.65;48.41;101906.28;5055127;28;20048;-67
2023/10/02 12:05:16;;;;;;;8.68;4.75;;;;;;;24.74;48.36;101914.97;5057880;28;20127;-68
2023/10/02 12:07:44;;;;;;;9.52;4.90;;;;;;;24.75;48.28;101908.63;5055781;28;20037;-68
2023/10/02 12:10:15;;;;;;;9.25;5.10;;;;;;;24.76;48.41;101911.09;5056234;28;20478;-69
2023/10/02 12:12:45;;;;;;;8.60;4.72;;;;;;;24.80;48.42;101911.59;5054098;28;20056;-68
2023/10/02 12:15:13;;;;;;;;;;;;;;;24.77;48.27;101909.28;5057562;28;20051;-68
2023/10/02 12:17:39;;;;;;;10.63;5.00;;;;;;;24.81;48.17;101914.06;5052949;28;19923;-68
2023/10/02 12:20:10;;;;;;;9.18;4.43;;;;;;;24.77;48.22;101917.25;5056976;28;20045;-67
2023/10/02 12:22:36;;;;;;;9.93;4.93;;;;;;;24.78;48.36;101911.78;5056477;28;20060;-67
2023/10/02 12:25:04;;;;;;;9.68;4.88;;;;;;;24.83;48.18;101911.22;5050321;28;20060;-68
2023/10/02 12:27:30;;;;;;;8.98;4.97;;;;;;;24.83;48.18;101908.53;5057267;28;20413;-67
2023/10/02 12:29:58;;;;;;;9.88;5.00;;;;;;;24.82;48.50;101905.06;5051470;28;20128;-68
2023/10/02 12:32:24;;;;;;;11.73;5.20;;;;;;;24.82;48.29;101894.41;5058614;28;20040;-68
2023/10/02 12:34:50;;;;;;;9.77;5.05;;;;;;;24.81;48.33;101889.25;5056704;28;20041;-67
2023/10/02 12:37:18;;;;;;;12.38;4.22;;;;;;;24.79;48.43;101881.47;5051713;28;20048;-67
2023/10/02 12:39:47;;;;;;;8.48;4.07;;;;;;;24.82;48.37;101894.41;5051214;28;20067;-65
2023/10/02 12:42:13;;;;;;;8.43;4.72;;;;;;;24.86;48.38;101886.84;5048351;28;20049;-65
2023/10/02 12:44:40;;;;;;;9.07;5.35;;;;;;;24.84;48.33;101884.38;5050803;28;20059;-66
2023/10/02 12:47:07;;;;;;;10.43;5.30;;;;;;;24.83;48.28;101881.91;5051091;28;20043;-65
2023/10/02 12:49:35;;;;;;;12.82;5.30;;;;;;;24.86;48.35;101876.19;5046175;28;20128;-65
2023/10/02 12:52:00;;;;;;;9.02;5.47;;;;;;;24.87;48.44;101877.84;5052987;28;20056;-64
2023/10/02 12:54:27;;;;;;;8.35;4.32;;;;;;;24.86;48.21;101873.53;5051788;28;20044;-65